Time;durP1;ratioP1;P1;durP2;ratioP2;P2;SDS_P1;SDS_P2;PMS_P1;PMS_P2;Temp;Humidity;BMP_temperature;BMP_pressure;BME280_temperature;BME280_humidity;BME280_pressure;Samples;Min_cycle;Max_cycle;Signal;HPM_P1;HPM_P2
2021/11/26 00:00:24;;;;;;;15.03;6.00;;;;;;;4.31;71.66;100468.78;126358;1099;103926;-81
2021/11/26 00:03:16;;;;;;;12.30;5.73;;;;;;;4.28;70.98;100469.48;125479;1099;103976;-80
2021/11/26 00:05:48;;;;;;;9.70;4.93;;;;;;;4.29;71.90;100471.28;126333;1099;103977;-80
2021/11/26 00:08:20;;;;;;;11.77;5.33;;;;;;;4.28;71.40;100481.59;126341;1099;104015;-81
2021/11/26 00:10:52;;;;;;;13.55;5.40;;;;;;;4.27;70.86;100474.59;126341;1099;103951;-81
2021/11/26 00:13:28;;;;;;;11.57;5.70;;;;;;;4.30;70.91;100478.29;126294;1099;103944;-81
2021/11/26 00:16:05;;;;;;;12.00;5.35;;;;;;;4.34;71.82;100473.28;126283;1099;102546;-81
2021/11/26 00:18:42;;;;;;;10.93;5.40;;;;;;;4.30;71.56;100462.70;126333;1097;103977;-80
2021/11/26 00:21:15;;;;;;;13.17;5.73;;;;;;;4.28;71.53;100458.20;126290;1099;103919;-80
2021/11/26 00:23:46;;;;;;;9.53;5.10;;;;;;;4.27;71.59;100452.12;126271;1099;104018;-80
2021/11/26 00:26:18;;;;;;;11.17;5.30;;;;;;;4.28;71.59;100448.70;125443;1099;104066;-81
2021/11/26 00:28:50;;;;;;;11.83;5.50;;;;;;;4.29;71.43;100450.50;126315;1099;103970;-81
2021/11/26 00:31:21;;;;;;;9.43;5.07;;;;;;;4.29;71.17;100450.50;126350;1099;103951;-80
2021/11/26 00:33:53;;;;;;;12.43;5.73;;;;;;;4.28;71.76;100448.70;125380;1099;103980;-81
2021/11/26 00:36:26;;;;;;;12.03;5.27;;;;;;;4.28;71.76;100443.50;126332;1098;104021;-80
2021/11/26 00:38:58;;;;;;;11.17;5.57;;;;;;;4.27;71.07;100449.53;125432;1099;104002;-81
2021/11/26 00:41:30;;;;;;;11.50;5.30;;;;;;;4.27;71.44;100441.73;126325;1099;103945;-81
2021/11/26 00:44:02;;;;;;;9.13;5.07;;;;;;;4.27;71.28;100427.83;126320;1099;103870;-82
2021/11/26 00:46:35;;;;;;;8.70;4.90;;;;;;;4.28;71.84;100430.52;126288;1099;104059;-81
2021/11/26 00:49:08;;;;;;;9.87;4.93;;;;;;;4.28;71.29;100424.44;126379;1099;104423;-81
2021/11/26 00:51:40;;;;;;;10.07;5.20;;;;;;;4.28;71.93;100420.13;126344;1099;104034;-81
2021/11/26 00:54:11;;;;;;;12.03;5.20;;;;;;;4.28;71.22;100421.84;126319;1099;104022;-81
2021/11/26 00:56:43;;;;;;;10.20;4.97;;;;;;;4.29;71.22;100421.05;126349;1097;103934;-81
2021/11/26 00:59:15;;;;;;;12.67;5.60;;;;;;;4.29;71.51;100424.53;126311;1099;103983;-81
2021/11/26 01:01:47;;;;;;;9.07;4.80;;;;;;;4.29;71.63;100413.25;126375;1097;103917;-82
2021/11/26 01:04:20;;;;;;;9.17;4.77;;;;;;;4.29;71.57;100421.94;125235;1102;104095;-81
2021/11/26 01:06:51;;;;;;;9.43;4.53;;;;;;;4.32;71.59;100413.44;125301;1101;103983;-81
2021/11/26 01:09:23;;;;;;;13.60;5.47;;;;;;;4.32;71.16;100413.44;125291;1102;104031;-81
2021/11/26 01:11:55;;;;;;;8.53;4.70;;;;;;;4.34;71.14;100413.53;125320;1102;104073;-81
2021/11/26 01:14:27;;;;;;;10.73;5.23;;;;;;;4.35;71.65;100407.50;125214;1102;104320;-81
2021/11/26 01:16:59;;;;;;;8.27;4.33;;;;;;;4.37;71.12;100409.40;125310;1102;103931;-80
2021/11/26 01:19:31;;;;;;;9.07;4.80;;;;;;;4.40;71.63;100403.50;125258;1102;104021;-80
2021/11/26 01:22:03;;;;;;;8.87;4.63;;;;;;;4.40;71.83;100395.70;125445;1102;102733;-81
2021/11/26 01:24:35;;;;;;;9.67;4.90;;;;;;;4.41;71.05;100392.28;126302;1099;103922;-81
2021/11/26 01:27:08;;;;;;;8.40;4.90;;;;;;;4.44;70.91;100395.97;126333;1099;103929;-80
2021/11/26 01:29:39;;;;;;;9.93;5.10;;;;;;;4.44;71.45;100393.37;126321;1097;103995;-81
2021/11/26 01:32:11;;;;;;;8.93;4.80;;;;;;;4.47;70.81;100392.64;126305;1099;104021;-81
2021/11/26 01:34:43;;;;;;;7.70;4.20;;;;;;;4.49;71.29;100396.24;126278;1099;104362;-81
2021/11/26 01:37:14;;;;;;;9.67;4.77;;;;;;;4.49;71.23;100394.53;126309;1099;103980;-81
2021/11/26 01:39:46;;;;;;;9.93;4.50;;;;;;;4.48;70.86;100387.53;125447;1099;103919;-80
2021/11/26 01:42:18;;;;;;;8.47;4.60;;;;;;;4.50;70.93;100390.22;126337;1098;104095;-80
2021/11/26 01:44:49;;;;;;;8.47;4.63;;;;;;;4.52;71.28;100388.63;126286;1099;105451;-81
2021/11/26 01:47:21;;;;;;;8.60;4.67;;;;;;;4.52;71.29;100380.83;126322;1099;103916;-81
2021/11/26 01:49:54;;;;;;;9.30;4.60;;;;;;;4.48;71.17;100377.13;126313;1099;103963;-81
2021/11/26 01:52:26;;;;;;;8.73;4.83;;;;;;;4.46;71.16;100370.97;126359;1099;103954;-82
2021/11/26 01:54:57;;;;;;;9.53;4.60;;;;;;;4.48;70.81;100381.45;126304;1099;103925;-82
2021/11/26 01:57:29;;;;;;;10.60;4.90;;;;;;;4.48;70.83;100374.54;126301;1099;104080;-81
2021/11/26 02:00:01;;;;;;;9.63;4.80;;;;;;;4.48;71.18;100376.25;126350;1099;104028;-80
2021/11/26 02:02:37;;;;;;;9.80;5.03;;;;;;;4.48;70.62;100371.05;126319;1099;103929;-80
2021/11/26 02:05:10;;;;;;;10.90;5.30;;;;;;;4.47;71.04;100377.05;126301;1099;104799;-80
2021/11/26 02:07:41;;;;;;;9.63;4.87;;;;;;;4.45;71.13;100373.47;126313;1099;103919;-81
2021/11/26 02:10:13;;;;;;;9.47;5.00;;;;;;;4.43;70.55;100383.78;126309;1099;103917;-81
2021/11/26 02:12:45;;;;;;;9.33;4.77;;;;;;;4.42;70.71;100376.78;126339;1099;104025;-80
2021/11/26 02:15:22;;;;;;;10.40;4.97;;;;;;;4.41;70.77;100376.69;126301;1099;103998;-80
2021/11/26 02:17:56;;;;;;;10.27;4.80;;;;;;;4.36;70.63;100380.73;126330;1099;104530;-81
2021/11/26 02:20:28;;;;;;;;;;;;;;;4.34;70.98;100378.05;126417;1099;103942;-80
2021/11/26 02:23:01;;;;;;;10.23;4.40;;;;;;;4.34;71.21;100384.95;126341;1099;103951;-80
2021/11/26 02:25:34;;;;;;;9.00;4.50;;;;;;;4.32;71.01;100385.75;126309;1099;103974;-81
2021/11/26 02:28:09;;;;;;;9.90;4.73;;;;;;;4.32;70.99;100390.94;126356;1099;101913;-81
2021/11/26 02:30:42;;;;;;;11.77;5.17;;;;;;;4.29;70.33;100393.36;126326;1099;104378;-80
2021/11/26 02:33:18;;;;;;;9.50;5.27;;;;;;;4.28;70.66;100388.95;126325;1099;103913;-82
2021/11/26 02:35:52;;;;;;;8.70;4.63;;;;;;;4.28;71.12;100385.47;126276;1099;103910;-81
2021/11/26 02:38:23;;;;;;;;;;;;;;;4.27;70.35;100381.08;126393;1099;103932;-80
2021/11/26 02:40:56;;;;;;;9.53;5.20;;;;;;;4.23;70.96;100372.22;126324;1099;103925;-81
2021/11/26 02:43:28;;;;;;;8.87;4.87;;;;;;;4.23;70.98;100374.81;126368;1099;103955;-80
2021/11/26 02:46:00;;;;;;;9.10;4.47;;;;;;;4.25;71.08;100368.00;126294;1098;103923;-81
2021/11/26 02:48:31;;;;;;;12.97;4.63;;;;;;;4.23;70.82;100367.02;126299;1099;103921;-82
2021/11/26 02:51:04;;;;;;;9.10;4.70;;;;;;;4.21;70.94;100378.14;126313;1099;104022;-81
2021/11/26 02:53:36;;;;;;;10.33;4.67;;;;;;;4.17;70.56;100381.36;126274;1097;103961;-81
2021/11/26 02:56:08;;;;;;;11.20;4.90;;;;;;;4.16;71.21;100380.47;126302;1099;103915;-81
2021/11/26 02:58:40;;;;;;;9.33;4.73;;;;;;;4.16;70.75;100383.06;126345;1099;103964;-81
2021/11/26 03:01:12;;;;;;;10.43;4.53;;;;;;;4.16;70.94;100376.95;126282;1098;103987;-82
2021/11/26 03:03:45;;;;;;;9.57;5.03;;;;;;;4.16;70.55;100377.88;126405;1099;103913;-80
2021/11/26 03:06:16;;;;;;;11.10;5.10;;;;;;;4.12;70.94;100379.37;126284;1099;105379;-81
2021/11/26 03:08:48;;;;;;;8.53;4.53;;;;;;;4.12;70.71;100365.50;126344;1099;104005;-80
2021/11/26 03:11:20;;;;;;;10.83;5.10;;;;;;;4.10;70.93;100360.22;125413;1099;103931;-81
2021/11/26 03:13:52;;;;;;;10.47;5.10;;;;;;;4.06;70.45;100357.34;126295;1099;104040;-81
2021/11/26 03:16:23;;;;;;;11.10;4.80;;;;;;;4.02;70.24;100360.55;126330;1099;104012;-81
2021/11/26 03:18:55;;;;;;;10.23;5.03;;;;;;;3.96;70.80;100361.10;126320;1098;103918;-81
2021/11/26 03:21:27;;;;;;;8.77;4.83;;;;;;;3.93;70.66;100361.80;126364;1099;103928;-80
2021/11/26 03:23:59;;;;;;;10.27;4.93;;;;;;;3.94;70.33;100355.81;126332;1099;104009;-81
2021/11/26 03:26:31;;;;;;;10.30;5.07;;;;;;;3.96;70.70;100358.50;126298;1099;103922;-81
2021/11/26 03:29:03;;;;;;;12.60;5.27;;;;;;;3.97;70.29;100355.08;126322;1099;104012;-80
2021/11/26 03:31:35;;;;;;;11.07;5.37;;;;;;;3.94;71.05;100353.22;126303;1099;103920;-80
2021/11/26 03:34:06;;;;;;;8.37;4.90;;;;;;;3.96;70.96;100351.60;126293;1099;103916;-80
2021/11/26 03:36:38;;;;;;;10.80;5.27;;;;;;;3.92;70.86;100343.54;126292;1099;105166;-80
2021/11/26 03:39:10;;;;;;;9.47;5.10;;;;;;;3.89;71.08;100349.43;125393;1099;104009;-81
2021/11/26 03:41:42;;;;;;;12.57;5.37;;;;;;;3.87;70.64;100348.45;126326;1099;103925;-80
2021/11/26 03:44:14;;;;;;;11.30;5.50;;;;;;;3.86;70.75;100349.25;126328;1099;104451;-80
2021/11/26 03:46:46;;;;;;;10.67;5.27;;;;;;;3.87;71.16;100345.86;126264;1099;104018;-80
2021/11/26 03:49:17;;;;;;;11.83;5.30;;;;;;;3.87;70.83;100347.57;126300;1099;103955;-82
2021/11/26 03:51:49;;;;;;;10.33;5.40;;;;;;;3.89;70.50;100344.23;126269;1099;103922;-80
2021/11/26 03:54:21;;;;;;;10.90;5.50;;;;;;;3.91;70.97;100337.46;126342;1099;104041;-80
2021/11/26 03:56:53;;;;;;;11.83;5.30;;;;;;;3.95;70.71;100326.44;126277;1099;104384;-81
2021/11/26 03:59:24;;;;;;;9.33;5.10;;;;;;;3.96;70.82;100319.56;125445;1099;103925;-81
2021/11/26 04:01:56;;;;;;;10.37;5.03;;;;;;;4.01;70.39;100325.91;126331;1099;104015;-81
2021/11/26 04:04:28;;;;;;;7.80;4.73;;;;;;;4.00;70.83;100318.03;125348;1099;104091;-82
2021/11/26 04:07:00;;;;;;;13.03;5.43;;;;;;;4.00;71.03;100315.44;126290;1099;103944;-81
2021/11/26 04:09:32;;;;;;;12.43;4.90;;;;;;;3.99;70.40;100318.83;126352;1099;104009;-80
2021/11/26 04:12:04;;;;;;;10.57;4.70;;;;;;;3.98;70.36;100319.66;126330;1099;104066;-81
2021/11/26 04:14:36;;;;;;;12.13;4.90;;;;;;;3.91;70.78;100311.50;126322;1099;103917;-81
2021/11/26 04:17:10;;;;;;;11.87;5.60;;;;;;;3.90;70.71;100314.00;126303;1099;103928;-81
2021/11/26 04:19:40;;;;;;;;;;;;;;;3.89;70.64;100310.49;126394;1098;103967;-81
2021/11/26 04:22:12;;;;;;;10.43;5.37;;;;;;;3.90;70.32;100314.00;126343;1099;103941;-81
2021/11/26 04:24:44;;;;;;;16.77;5.60;;;;;;;3.90;70.50;100311.41;126247;1099;104025;-80
2021/11/26 04:27:16;;;;;;;15.43;5.90;;;;;;;3.89;70.25;100309.61;126239;1099;105486;-80
2021/11/26 04:29:48;;;;;;;9.87;5.30;;;;;;;3.89;70.25;100307.89;126317;1099;104366;-81
2021/11/26 04:32:20;;;;;;;11.30;5.50;;;;;;;3.87;71.11;100293.05;126335;1099;103931;-80
2021/11/26 04:34:51;;;;;;;11.70;5.20;;;;;;;3.88;71.05;100305.20;125381;1099;104006;-81
2021/11/26 04:37:23;;;;;;;10.60;4.90;;;;;;;3.84;70.07;100298.06;126293;1098;103944;-81
2021/11/26 04:39:55;;;;;;;10.63;5.37;;;;;;;3.81;69.95;100297.88;126322;1099;104067;-81
2021/11/26 04:42:26;;;;;;;12.23;5.03;;;;;;;3.85;70.59;100295.56;126279;1099;104057;-82
2021/11/26 04:44:58;;;;;;;10.83;5.40;;;;;;;3.89;70.79;100288.84;126370;1098;103925;-81
2021/11/26 04:47:30;;;;;;;12.13;5.33;;;;;;;3.92;70.50;100289.02;125328;1099;103961;-80
2021/11/26 04:50:02;;;;;;;15.20;6.10;;;;;;;3.94;71.00;100292.59;126353;1099;104031;-80
2021/11/26 04:52:33;;;;;;;12.90;5.70;;;;;;;4.00;70.86;100294.66;126305;1099;104034;-80
2021/11/26 04:55:07;;;;;;;12.07;5.13;;;;;;;4.00;70.55;100294.66;126323;1099;104037;-81
2021/11/26 04:57:39;;;;;;;11.50;5.58;;;;;;;4.04;71.40;100289.74;126306;1099;103926;-80
2021/11/26 05:00:14;;;;;;;12.33;5.57;;;;;;;4.06;71.23;100282.05;126304;1099;111996;-81
2021/11/26 05:02:47;;;;;;;15.63;5.73;;;;;;;4.04;70.99;100287.14;126391;1099;103970;-81
2021/11/26 05:05:19;;;;;;;10.43;5.63;;;;;;;4.04;71.13;100289.74;126281;1099;104057;-81
2021/11/26 05:07:51;;;;;;;12.87;5.60;;;;;;;4.05;70.38;100286.35;126273;1099;104028;-81
2021/11/26 05:10:24;;;;;;;12.83;5.40;;;;;;;4.04;71.25;100294.05;126342;1099;104018;-80
2021/11/26 05:12:58;;;;;;;12.33;5.60;;;;;;;4.02;70.66;100293.05;126330;1099;104014;-81
2021/11/26 05:15:32;;;;;;;14.60;5.60;;;;;;;4.00;70.29;100290.36;126331;1099;103967;-81
2021/11/26 05:18:05;;;;;;;12.05;5.50;;;;;;;4.02;71.12;100296.55;126279;1099;104063;-81
2021/11/26 05:20:37;;;;;;;12.13;5.10;;;;;;;4.06;70.20;100288.12;126279;1099;108763;-80
2021/11/26 05:23:09;;;;;;;15.57;5.60;;;;;;;4.10;70.61;100286.62;126281;1099;103938;-81
2021/11/26 05:25:43;;;;;;;13.93;5.20;;;;;;;4.12;70.87;100285.88;126318;1099;103942;-81
2021/11/26 05:28:16;;;;;;;11.73;5.03;;;;;;;4.18;70.54;100279.27;126341;1098;103906;-81
2021/11/26 05:30:49;;;;;;;12.30;4.90;;;;;;;4.24;70.48;100277.91;126168;1099;103948;-81
2021/11/26 05:33:23;;;;;;;9.48;4.53;;;;;;;4.30;70.80;100275.67;126194;1099;103942;-81
2021/11/26 05:35:59;;;;;;;10.93;4.85;;;;;;;4.29;70.82;100284.25;125331;1099;103913;-82
2021/11/26 05:38:32;;;;;;;9.60;5.00;;;;;;;4.32;71.40;100283.55;125958;1099;104009;-79
2021/11/26 05:41:04;;;;;;;11.60;5.17;;;;;;;4.34;71.12;100287.12;126048;1099;103958;-80
2021/11/26 05:43:36;;;;;;;11.20;5.63;;;;;;;4.37;71.04;100299.40;126065;1099;104364;-79
2021/11/26 05:46:07;;;;;;;13.20;5.63;;;;;;;4.42;71.14;100301.43;126091;1099;103913;-79
2021/11/26 05:48:39;;;;;;;12.53;5.47;;;;;;;4.43;70.98;100292.84;126038;1099;104031;-80
2021/11/26 05:51:11;;;;;;;11.03;5.43;;;;;;;4.49;70.61;100287.99;126121;1099;103938;-80
2021/11/26 05:53:43;;;;;;;12.50;5.67;;;;;;;4.56;71.07;100286.62;126188;1099;104015;-81
2021/11/26 05:56:15;;;;;;;13.00;5.70;;;;;;;4.61;71.21;100280.00;126238;1099;104009;-82
2021/11/26 05:58:47;;;;;;;10.73;5.03;;;;;;;4.62;71.27;100273.09;125298;1099;104076;-81
2021/11/26 06:01:20;;;;;;;12.13;5.13;;;;;;;4.60;70.84;100273.00;126196;1099;104016;-82
2021/11/26 06:03:52;;;;;;;;;;;;;;;4.64;71.05;100271.46;126243;1099;103928;-82
2021/11/26 06:06:26;;;;;;;13.53;5.23;;;;;;;4.67;70.95;100271.63;125298;1099;103983;-81
2021/11/26 06:09:01;;;;;;;8.53;4.70;;;;;;;4.70;70.64;100276.12;126239;1099;103909;-81
2021/11/26 06:11:36;;;;;;;15.80;5.40;;;;;;;4.77;70.72;100271.34;126182;1099;108572;-81
2021/11/26 06:14:07;;;;;;;;;;;;;;;4.88;70.80;100263.22;126325;1099;103919;-81
2021/11/26 06:16:45;;;;;;;9.87;4.87;;;;;;;4.94;71.53;100254.07;125399;1099;104006;-81
2021/11/26 06:19:22;;;;;;;11.33;4.93;;;;;;;5.01;70.56;100269.17;125415;1102;103947;-81
2021/11/26 06:21:56;;;;;;;11.13;4.60;;;;;;;5.13;71.37;100268.07;126144;1099;118079;-81
2021/11/26 06:24:33;;;;;;;11.93;4.70;;;;;;;5.24;71.20;100266.93;126232;1099;103931;-81
2021/11/26 06:27:10;;;;;;;11.80;4.97;;;;;;;5.35;70.99;100265.78;126326;1099;103974;-81
2021/11/26 06:29:44;;;;;;;11.43;5.13;;;;;;;5.46;71.02;100278.47;126234;1099;101824;-81
2021/11/26 06:32:16;;;;;;;9.78;4.97;;;;;;;5.55;71.16;100279.84;126225;1099;104008;-81
2021/11/26 06:34:48;;;;;;;10.30;4.67;;;;;;;5.67;70.88;100276.08;125261;1102;104056;-78
2021/11/26 06:37:21;;;;;;;8.80;4.43;;;;;;;5.73;71.16;100281.60;125237;1102;104076;-80
2021/11/26 06:39:54;;;;;;;10.53;4.33;;;;;;;5.85;71.13;100281.35;125253;1103;104080;-78
2021/11/26 06:42:26;;;;;;;10.53;4.80;;;;;;;5.93;71.12;100280.02;125122;1099;105115;-81
2021/11/26 06:44:58;;;;;;;9.60;4.23;;;;;;;5.91;70.86;100279.06;125153;1099;104005;-79
2021/11/26 06:47:30;;;;;;;10.67;4.57;;;;;;;5.96;71.05;100274.97;125205;1099;103897;-79
2021/11/26 06:50:06;;;;;;;10.10;4.70;;;;;;;5.96;70.62;100276.69;125207;1102;104102;-81
2021/11/26 06:52:48;;;;;;;7.73;4.00;;;;;;;5.91;70.39;100269.53;125180;1102;104158;-78
2021/11/26 06:55:25;;;;;;;7.07;4.00;;;;;;;5.90;70.35;100264.23;125196;1102;104079;-82
2021/11/26 06:58:02;;;;;;;9.23;4.10;;;;;;;5.87;70.11;100274.50;125145;1102;101672;-79
2021/11/26 07:00:34;;;;;;;11.03;3.97;;;;;;;5.85;70.38;100278.75;125101;1102;104072;-78
2021/11/26 07:03:13;;;;;;;12.23;4.70;;;;;;;5.86;70.32;100280.52;125181;1099;107069;-80
2021/11/26 07:05:48;;;;;;;12.70;4.73;;;;;;;5.89;70.21;100288.48;125429;1099;104220;-80
2021/11/26 07:08:20;;;;;;;13.73;4.47;;;;;;;5.93;70.14;100293.05;126183;1099;104024;-77
2021/11/26 07:10:57;;;;;;;10.17;4.83;;;;;;;5.98;70.45;100283.78;125203;1100;103983;-81
2021/11/26 07:13:31;;;;;;;8.27;4.30;;;;;;;6.03;70.31;100284.01;125824;1099;103954;-78
2021/11/26 07:16:03;;;;;;;7.87;4.07;;;;;;;6.10;70.33;100280.91;126131;1099;104046;-78
2021/11/26 07:18:35;;;;;;;7.30;3.77;;;;;;;6.20;70.10;100287.46;126151;1099;104514;-80
2021/11/26 07:21:10;;;;;;;11.40;4.43;;;;;;;6.30;70.28;100280.18;126137;1099;103931;-80
2021/11/26 07:23:44;;;;;;;8.53;3.93;;;;;;;6.38;69.85;100279.67;126279;1099;103944;-83
2021/11/26 07:26:24;;;;;;;11.63;4.10;;;;;;;6.46;69.89;100288.75;125230;1099;104258;-81
2021/11/26 07:28:58;;;;;;;7.40;3.90;;;;;;;6.55;69.63;100278.77;125232;1102;103924;-84
2021/11/26 07:31:31;;;;;;;10.63;4.33;;;;;;;6.64;69.50;100270.52;125268;1101;104067;-81
2021/11/26 07:34:03;;;;;;;11.27;4.37;;;;;;;6.74;69.70;100277.93;125271;1102;104118;-79
2021/11/26 07:36:35;;;;;;;8.50;4.07;;;;;;;6.84;69.72;100268.85;125228;1102;104098;-77
2021/11/26 07:39:08;;;;;;;9.87;3.90;;;;;;;6.96;69.49;100258.95;125203;1102;104078;-78
2021/11/26 07:41:41;;;;;;;8.17;3.80;;;;;;;7.05;69.45;100255.89;125108;1102;104184;-78
2021/11/26 07:44:13;;;;;;;9.90;3.87;;;;;;;7.16;69.62;100258.98;125339;1102;103955;-82
2021/11/26 07:46:48;;;;;;;7.90;3.40;;;;;;;7.26;68.79;100253.38;125205;1102;103980;-81
2021/11/26 07:49:20;;;;;;;10.13;3.50;;;;;;;7.35;68.94;100253.79;125218;1102;103925;-81
2021/11/26 07:51:53;;;;;;;9.37;3.30;;;;;;;7.46;68.46;100246.41;125188;1102;103974;-82
2021/11/26 07:54:27;;;;;;;9.40;3.70;;;;;;;7.55;68.54;100244.20;125196;1102;103968;-81
2021/11/26 07:57:04;;;;;;;8.07;3.20;;;;;;;7.67;68.26;100235.14;125188;1102;103939;-80
2021/11/26 07:59:36;;;;;;;4.40;2.90;;;;;;;7.77;67.74;100245.13;125263;1102;104172;-80
2021/11/26 08:02:08;;;;;;;8.43;3.73;;;;;;;7.87;68.00;100243.83;125251;1102;104185;-81
2021/11/26 08:04:40;;;;;;;7.75;3.20;;;;;;;7.96;67.09;100248.53;126067;1099;104097;-78
2021/11/26 08:07:12;;;;;;;7.03;2.77;;;;;;;8.01;66.20;100232.22;126282;1099;104070;-80
2021/11/26 08:09:46;;;;;;;7.93;3.13;;;;;;;8.07;67.05;100227.25;125401;1099;103950;-79
2021/11/26 08:12:23;;;;;;;6.55;3.10;;;;;;;8.15;66.50;100229.27;125274;1099;101653;-80
2021/11/26 08:14:56;;;;;;;6.27;3.03;;;;;;;8.21;66.23;100214.75;125305;1102;103963;-81
2021/11/26 08:17:28;;;;;;;9.30;3.10;;;;;;;8.25;66.36;100214.03;125317;1102;104140;-82
2021/11/26 08:20:04;;;;;;;6.93;3.20;;;;;;;8.35;66.67;100210.08;125065;1102;104044;-82
2021/11/26 08:22:38;;;;;;;6.77;2.90;;;;;;;8.45;65.70;100200.91;125122;1102;103958;-80
2021/11/26 08:25:11;;;;;;;7.83;3.00;;;;;;;8.52;64.87;100199.41;125193;1102;104133;-81
2021/11/26 08:27:52;;;;;;;5.60;2.90;;;;;;;8.59;65.90;100204.94;125261;1102;103913;-78
2021/11/26 08:30:27;;;;;;;10.47;3.73;;;;;;;8.68;66.07;100190.43;125210;1102;104107;-78
2021/11/26 08:33:32;;;;;;;7.07;2.73;;;;;;;8.81;65.67;100195.31;125109;1102;103902;-80
2021/11/26 08:36:12;;;;;;;8.70;2.80;;;;;;;8.90;65.54;100184.31;125156;1102;104194;-80
2021/11/26 08:39:08;;;;;;;7.70;2.70;;;;;;;8.98;65.14;100181.12;125205;1102;103967;-80
2021/11/26 08:41:44;;;;;;;4.63;2.60;;;;;;;9.10;65.04;100177.16;125206;1102;103970;-82
2021/11/26 08:44:21;;;;;;;9.03;2.90;;;;;;;9.17;64.35;100169.59;125153;1102;103919;-80
2021/11/26 08:46:59;;;;;;;9.67;2.80;;;;;;;9.24;64.37;100172.43;125204;1102;103922;-79
2021/11/26 08:49:32;;;;;;;7.17;2.83;;;;;;;9.29;64.10;100152.56;125213;1102;104208;-80
2021/11/26 08:52:16;;;;;;;5.90;2.53;;;;;;;9.38;64.51;100170.30;125241;1102;103945;-79
2021/11/26 08:54:51;;;;;;;8.90;3.03;;;;;;;9.49;64.90;100168.94;125232;1102;105323;-82
2021/11/26 08:57:27;;;;;;;7.00;2.87;;;;;;;9.56;63.66;100170.95;125217;1102;104109;-81
2021/11/26 09:00:06;;;;;;;8.10;2.90;;;;;;;9.57;62.62;100167.50;125167;1102;104215;-81
2021/11/26 09:02:40;;;;;;;8.77;2.90;;;;;;;9.63;63.77;100161.55;125274;1102;104072;-79
2021/11/26 09:05:12;;;;;;;6.67;2.87;;;;;;;9.64;62.20;100158.98;125189;1102;104180;-80
2021/11/26 09:07:46;;;;;;;7.77;3.20;;;;;;;9.67;61.98;100160.83;125221;1102;103922;-80
2021/11/26 09:10:24;;;;;;;9.57;2.80;;;;;;;9.73;63.20;100158.42;125293;1102;104105;-81
2021/11/26 09:13:01;;;;;;;7.97;2.53;;;;;;;9.81;63.12;100154.32;125264;1102;104133;-81
2021/11/26 09:15:35;;;;;;;8.43;3.40;;;;;;;9.86;62.80;100144.91;125211;1102;102165;-78
2021/11/26 09:18:08;;;;;;;6.90;2.75;;;;;;;9.87;60.99;100135.30;125032;1102;103949;-79
2021/11/26 09:20:43;;;;;;;5.03;2.23;;;;;;;9.90;61.53;100136.28;125139;1102;103983;-80
2021/11/26 09:23:18;;;;;;;3.47;2.13;;;;;;;9.95;61.53;100117.20;125143;1102;104082;-81
2021/11/26 09:25:55;;;;;;;6.83;2.70;;;;;;;9.98;60.69;100098.95;125167;1102;104299;-79
2021/11/26 09:28:28;;;;;;;6.70;2.47;;;;;;;10.04;60.87;100101.77;125250;1102;103069;-80
2021/11/26 09:31:09;;;;;;;3.30;2.33;;;;;;;10.14;61.45;100098.57;125222;1102;105121;-79
2021/11/26 09:33:47;;;;;;;7.80;2.63;;;;;;;10.26;61.75;100088.46;125161;1102;104062;-80
2021/11/26 09:36:28;;;;;;;5.80;2.50;;;;;;;10.41;61.64;100087.20;125262;1102;104045;-78
2021/11/26 09:39:05;;;;;;;5.60;2.63;;;;;;;10.52;61.01;100088.39;125212;1102;104115;-80
2021/11/26 09:41:45;;;;;;;7.17;2.90;;;;;;;10.50;59.99;100084.84;125230;1102;104102;-77
2021/11/26 09:44:18;;;;;;;5.83;2.47;;;;;;;10.53;60.19;100077.07;125234;1102;104000;-82
2021/11/26 09:46:58;;;;;;;5.57;2.70;;;;;;;10.56;60.00;100081.49;125157;1102;104165;-79
2021/11/26 09:49:36;;;;;;;5.97;2.67;;;;;;;10.51;59.81;100076.11;125444;1099;104076;-81
2021/11/26 09:52:08;;;;;;;4.73;2.60;;;;;;;10.53;59.73;100066.58;125303;1099;104041;-78
2021/11/26 09:54:50;;;;;;;4.27;2.33;;;;;;;10.53;58.33;100047.30;126172;1099;104062;-79
2021/11/26 09:57:22;;;;;;;5.93;2.40;;;;;;;10.51;59.58;100047.26;125295;1099;105287;-79
2021/11/26 09:59:55;;;;;;;5.70;2.67;;;;;;;10.53;59.15;100045.59;126232;1099;103986;-79
2021/11/26 10:02:30;;;;;;;7.43;2.70;;;;;;;10.53;58.44;100032.47;126308;1099;103984;-83
2021/11/26 10:05:06;;;;;;;4.50;2.40;;;;;;;10.49;58.31;100016.60;125283;1099;103909;-80
2021/11/26 10:07:55;;;;;;;10.63;2.73;;;;;;;10.54;58.67;100034.23;125275;1099;104044;-81
2021/11/26 10:10:37;;;;;;;4.67;2.33;;;;;;;10.54;59.26;100025.48;125284;1099;103964;-78
2021/11/26 10:13:16;;;;;;;4.57;2.40;;;;;;;10.51;58.90;100025.39;126211;1099;104060;-80
2021/11/26 10:15:52;;;;;;;6.30;2.60;;;;;;;10.44;59.03;100013.84;126116;1099;103902;-79
2021/11/26 10:18:28;;;;;;;3.10;2.05;;;;;;;10.45;59.06;100015.60;126042;1099;103915;-78
2021/11/26 10:21:09;;;;;;;3.70;2.30;;;;;;;10.41;59.17;100009.39;125200;1102;104041;-77
2021/11/26 10:23:45;;;;;;;8.53;2.80;;;;;;;10.38;58.89;99993.56;125117;1102;103938;-80
2021/11/26 10:26:28;;;;;;;7.43;3.00;;;;;;;10.36;58.98;99994.36;125145;1102;103929;-82
2021/11/26 10:29:02;;;;;;;4.77;2.43;;;;;;;10.29;58.19;99995.89;125091;1102;104076;-82
2021/11/26 10:31:39;;;;;;;7.53;2.90;;;;;;;10.27;58.63;100005.45;125007;1102;103932;-79
2021/11/26 10:34:12;;;;;;;9.50;3.10;;;;;;;10.29;58.96;99993.27;125064;1101;103931;-80
2021/11/26 10:36:51;;;;;;;7.73;3.23;;;;;;;10.29;58.23;99977.53;125139;1102;102621;-79
2021/11/26 10:39:26;;;;;;;9.03;3.53;;;;;;;10.38;58.87;99961.22;125081;1102;103993;-78
2021/11/26 10:42:28;;;;;;;9.53;3.00;;;;;;;10.52;58.21;99951.11;125024;1102;103973;-77
2021/11/26 10:45:05;;;;;;;8.53;2.63;;;;;;;10.45;58.16;99941.28;125093;1102;103957;-80
2021/11/26 10:47:49;;;;;;;6.47;2.60;;;;;;;10.45;57.76;99950.03;125107;1102;103931;-79
2021/11/26 10:50:37;;;;;;;10.20;2.85;;;;;;;10.43;58.87;99943.86;125232;1102;103932;-79
2021/11/26 10:58:59;;;;;;;7.97;2.70;;;;;;;10.37;58.75;99913.09;125170;1099;108110;-81
2021/11/26 11:01:47;;;;;;;11.53;3.57;;;;;;;10.36;58.13;99907.81;125200;1099;104032;-80
2021/11/26 11:04:25;;;;;;;10.73;3.23;;;;;;;10.29;58.09;99904.11;125239;1099;104095;-81
2021/11/26 11:07:17;;;;;;;7.43;2.73;;;;;;;10.28;58.61;99904.94;125225;1099;104079;-79
2021/11/26 11:09:58;;;;;;;7.37;3.00;;;;;;;10.29;58.54;99896.24;125208;1102;104018;-80
2021/11/26 11:12:48;;;;;;;6.80;2.60;;;;;;;10.35;58.50;99877.20;125081;1099;104961;-81
2021/11/26 11:15:24;;;;;;;9.03;3.10;;;;;;;10.38;58.74;99874.67;125094;1099;104027;-81
2021/11/26 11:23:45;;;;;;;8.17;3.20;;;;;;;10.36;58.70;99869.38;125027;1099;104452;-80
2021/11/26 11:29:22;;;;;;;9.27;2.50;;;;;;;10.48;59.24;99871.42;125139;1099;104114;-82
2021/11/26 11:31:58;;;;;;;5.37;2.50;;;;;;;10.53;58.92;99868.91;125066;1099;104028;-80
2021/11/26 11:34:31;;;;;;;7.30;2.37;;;;;;;10.63;59.29;99878.80;125070;1099;103922;-79
2021/11/26 11:37:07;;;;;;;6.73;2.53;;;;;;;10.71;58.94;99879.87;125166;1098;104203;-80
2021/11/26 11:39:50;;;;;;;4.00;2.50;;;;;;;10.74;58.92;99877.33;125004;1102;102213;-80
2021/11/26 11:42:34;;;;;;;10.07;2.37;;;;;;;10.78;59.30;99881.82;125142;1099;104959;-81
2021/11/26 11:45:11;;;;;;;4.83;2.20;;;;;;;10.75;58.14;99878.21;125170;1099;104082;-81
2021/11/26 11:47:49;;;;;;;5.77;2.40;;;;;;;10.71;58.96;99858.89;125180;1099;104086;-81
2021/11/26 11:50:32;;;;;;;5.53;2.30;;;;;;;10.70;59.02;99854.48;125318;1099;119268;-78
2021/11/26 11:53:06;;;;;;;8.73;2.40;;;;;;;10.76;59.19;99843.26;125244;1102;103909;-79
2021/11/26 11:56:07;;;;;;;8.37;2.50;;;;;;;10.74;59.07;99834.47;125234;1099;104015;-81
2021/11/26 11:58:52;;;;;;;7.90;3.00;;;;;;;10.75;58.89;99824.01;125261;1102;104078;-81
2021/11/26 12:01:30;;;;;;;6.27;2.67;;;;;;;10.72;59.23;99831.81;125309;1102;101921;-80